Time;durP1;ratioP1;P1;durP2;ratioP2;P2;SDS_P1;SDS_P2;PMS_P1;PMS_P2;Temp;Humidity;BMP_temperature;BMP_pressure;BME280_temperature;BME280_humidity;BME280_pressure;Samples;Min_cycle;Max_cycle;Signal;HPM_P1;HPM_P2
2021/08/31 00:01:43;;;;;;;14.85;10.40;;;16.30;99.90;;;;;;5092404;28;20526;-82
2021/08/31 00:04:09;;;;;;;14.40;9.85;;;16.30;99.90;;;;;;5092324;28;20067;-82
2021/08/31 00:06:34;;;;;;;17.48;10.15;;;16.30;99.90;;;;;;5094261;28;20032;-82
2021/08/31 00:09:00;;;;;;;16.15;10.57;;;16.20;99.90;;;;;;5095073;28;20134;-83
2021/08/31 00:11:26;;;;;;;14.50;10.73;;;16.20;99.90;;;;;;5097509;28;20032;-82
2021/08/31 00:13:52;;;;;;;14.07;10.25;;;16.20;99.90;;;;;;5095288;28;20553;-82
2021/08/31 00:16:18;;;;;;;16.27;10.68;;;16.20;99.90;;;;;;5097436;28;20039;-82
2021/08/31 00:18:43;;;;;;;11.90;9.02;;;16.20;99.90;;;;;;5096222;28;20024;-82
2021/08/31 00:21:10;;;;;;;15.57;10.65;;;16.30;99.90;;;;;;5095305;28;20024;-83
2021/08/31 00:23:36;;;;;;;14.10;10.15;;;16.30;99.90;;;;;;5095560;28;20111;-82
2021/08/31 00:26:02;;;;;;;21.02;11.48;;;16.30;99.90;;;;;;5095652;28;20054;-82
2021/08/31 00:28:27;;;;;;;15.52;10.45;;;16.30;99.90;;;;;;5095574;28;20027;-82
2021/08/31 00:30:53;;;;;;;15.10;10.40;;;16.20;99.90;;;;;;5096705;28;20431;-82
2021/08/31 00:33:19;;;;;;;15.48;10.23;;;16.20;99.90;;;;;;5095287;28;20461;-83
2021/08/31 00:35:45;;;;;;;14.50;10.43;;;16.30;99.90;;;;;;5096044;28;20093;-82
2021/08/31 00:38:11;;;;;;;15.77;10.57;;;16.30;99.90;;;;;;5097171;28;20035;-83
2021/08/31 00:40:37;;;;;;;20.30;12.13;;;16.30;99.90;;;;;;5094503;28;20028;-83
2021/08/31 00:43:03;;;;;;;18.63;11.43;;;16.30;99.90;;;;;;5095627;28;20024;-82
2021/08/31 00:45:28;;;;;;;19.23;12.48;;;16.20;99.90;;;;;;5095426;28;20024;-82
2021/08/31 00:47:54;;;;;;;17.13;11.35;;;16.20;99.90;;;;;;5097140;28;20896;-82
2021/08/31 00:50:21;;;;;;;16.20;10.95;;;16.20;99.90;;;;;;5095419;28;20039;-82
2021/08/31 00:52:46;;;;;;;17.27;12.00;;;16.30;99.90;;;;;;5097860;28;20073;-83
2021/08/31 00:55:13;;;;;;;14.90;11.25;;;16.20;99.90;;;;;;5096386;28;20024;-84
2021/08/31 00:57:40;;;;;;;16.85;11.70;;;16.20;99.90;;;;;;5095735;28;20028;-83
2021/08/31 01:00:09;;;;;;;17.42;12.13;;;16.20;99.90;;;;;;5095544;28;20135;-83
2021/08/31 01:02:34;;;;;;;16.25;11.90;;;16.20;99.90;;;;;;5097572;28;20446;-83
2021/08/31 01:05:00;;;;;;;15.80;11.63;;;16.20;99.90;;;;;;5096085;28;20123;-83
2021/08/31 01:07:26;;;;;;;16.33;12.63;;;16.20;99.90;;;;;;5095519;28;20039;-82
2021/08/31 01:09:52;;;;;;;16.58;12.55;;;16.10;99.90;;;;;;5094816;28;20031;-85
2021/08/31 01:12:18;;;;;;;19.17;12.82;;;16.00;99.90;;;;;;5093803;28;20032;-83
2021/08/31 01:14:44;;;;;;;16.88;12.05;;;16.00;99.90;;;;;;5095117;28;20404;-83
2021/08/31 01:17:10;;;;;;;17.42;12.07;;;16.00;99.90;;;;;;5095034;28;20107;-82
2021/08/31 01:19:36;;;;;;;16.05;11.55;;;15.90;99.90;;;;;;5094977;28;20040;-83
2021/08/31 01:22:08;;;;;;;18.67;12.25;;;15.90;99.90;;;;;;5097171;28;20024;-83
2021/08/31 01:24:39;;;;;;;17.70;12.27;;;15.90;99.90;;;;;;5097676;28;20484;-83
2021/08/31 01:27:04;;;;;;;17.38;12.02;;;15.90;99.90;;;;;;5098036;28;20381;-82
2021/08/31 01:29:31;;;;;;;16.33;12.07;;;15.90;99.90;;;;;;5097747;28;20024;-83
2021/08/31 01:31:58;;;;;;;19.13;12.57;;;15.80;99.90;;;;;;5098139;28;20047;-83
2021/08/31 01:34:23;;;;;;;19.13;13.05;;;15.80;99.90;;;;;;5097681;28;20027;-81
2021/08/31 01:36:49;;;;;;;16.92;12.05;;;15.70;99.90;;;;;;5094328;28;20016;-81
2021/08/31 01:39:15;;;;;;;21.05;12.88;;;15.80;99.90;;;;;;5094100;28;20028;-81
2021/08/31 01:41:40;;;;;;;17.02;12.90;;;15.80;99.90;;;;;;5092892;28;20051;-82
2021/08/31 01:44:06;;;;;;;17.42;13.13;;;15.70;99.90;;;;;;5094185;28;20027;-81
2021/08/31 01:46:32;;;;;;;17.90;12.27;;;15.60;99.90;;;;;;5092533;28;20495;-83
2021/08/31 01:48:58;;;;;;;16.13;11.40;;;15.60;99.90;;;;;;5094070;28;20032;-83
2021/08/31 01:51:24;;;;;;;17.45;12.00;;;15.60;99.90;;;;;;5092603;28;20070;-83
2021/08/31 01:53:50;;;;;;;20.80;13.45;;;15.60;99.90;;;;;;5092479;28;20028;-81
2021/08/31 01:56:16;;;;;;;18.48;13.80;;;15.60;99.90;;;;;;5092597;28;20058;-81
2021/08/31 01:58:41;;;;;;;17.05;12.48;;;15.60;99.90;;;;;;5092637;28;20027;-82
2021/08/31 02:01:07;;;;;;;18.35;12.73;;;15.50;99.90;;;;;;5092086;28;20102;-84
2021/08/31 02:03:33;;;;;;;19.20;13.90;;;15.50;99.90;;;;;;5091063;28;20032;-85
2021/08/31 02:05:58;;;;;;;18.60;13.38;;;15.50;99.90;;;;;;5091048;28;20446;-85
2021/08/31 02:08:24;;;;;;;18.40;12.63;;;15.40;99.90;;;;;;5092197;28;20020;-85
2021/08/31 02:10:50;;;;;;;19.45;12.43;;;15.50;99.90;;;;;;5091954;28;20028;-83
2021/08/31 02:13:16;;;;;;;19.83;13.15;;;15.50;99.90;;;;;;5090875;28;20035;-83
2021/08/31 02:15:41;;;;;;;18.65;13.40;;;15.40;99.90;;;;;;5092537;28;20036;-82
2021/08/31 02:18:07;;;;;;;18.23;13.40;;;15.50;99.90;;;;;;5092753;28;20055;-82
2021/08/31 02:20:33;;;;;;;18.92;13.90;;;15.40;99.90;;;;;;5090730;28;20420;-82
2021/08/31 02:22:59;;;;;;;17.25;12.57;;;15.40;99.90;;;;;;5092682;28;20032;-83
2021/08/31 02:25:24;;;;;;;16.85;12.95;;;15.40;99.90;;;;;;5092369;28;20124;-82
2021/08/31 02:27:50;;;;;;;19.08;13.55;;;15.50;99.90;;;;;;5090746;28;20426;-83
2021/08/31 02:30:16;;;;;;;17.58;12.93;;;15.50;99.90;;;;;;5089591;28;20575;-84
2021/08/31 02:32:44;;;;;;;19.63;14.10;;;15.50;99.90;;;;;;5090832;28;20147;-84
2021/08/31 02:35:10;;;;;;;17.20;13.17;;;15.50;99.90;;;;;;5092275;28;20683;-85
2021/08/31 02:37:36;;;;;;;20.80;14.15;;;15.50;99.90;;;;;;5090412;28;20297;-82
2021/08/31 02:40:01;;;;;;;20.15;14.10;;;15.50;99.90;;;;;;5090373;28;20101;-83
2021/08/31 02:42:27;;;;;;;22.40;14.85;;;15.50;99.90;;;;;;5090653;28;20051;-82
2021/08/31 02:44:53;;;;;;;18.75;13.10;;;15.50;99.90;;;;;;5090900;28;20123;-84
2021/08/31 02:47:18;;;;;;;20.30;13.82;;;15.60;99.90;;;;;;5091065;28;20032;-82
2021/08/31 02:49:45;;;;;;;23.55;15.32;;;15.60;99.90;;;;;;5089887;28;20153;-83
2021/08/31 02:52:11;;;;;;;21.58;15.55;;;15.60;99.90;;;;;;5090417;28;20061;-84
2021/08/31 02:54:37;;;;;;;20.65;15.73;;;15.60;99.90;;;;;;5089256;28;20114;-83
2021/08/31 02:57:03;;;;;;;21.25;14.73;;;15.60;99.90;;;;;;5089939;28;20056;-82
2021/08/31 02:59:29;;;;;;;21.88;14.43;;;15.60;99.90;;;;;;5090000;28;20475;-83
2021/08/31 03:02:05;;;;;;;22.33;15.20;;;15.70;99.90;;;;;;5092503;28;20047;-83
2021/08/31 03:04:31;;;;;;;23.77;16.55;;;15.70;99.90;;;;;;5090681;28;20579;-82
2021/08/31 03:06:57;;;;;;;20.55;15.65;;;15.70;99.90;;;;;;5091002;28;20050;-82
2021/08/31 03:09:23;;;;;;;26.52;17.05;;;15.70;99.90;;;;;;5091622;28;20472;-82
2021/08/31 03:11:48;;;;;;;20.30;15.75;;;15.80;99.90;;;;;;5092409;28;20036;-83
2021/08/31 03:14:19;;;;;;;22.60;16.27;;;15.70;99.90;;;;;;5090409;28;20442;-82
2021/08/31 03:16:45;;;;;;;24.35;16.83;;;15.70;99.90;;;;;;5092104;28;20393;-83
2021/08/31 03:19:11;;;;;;;22.35;16.27;;;15.70;99.90;;;;;;5090273;28;20088;-83
2021/08/31 03:21:37;;;;;;;22.20;15.68;;;15.70;99.90;;;;;;5090927;28;20032;-83
2021/08/31 03:24:03;;;;;;;25.50;17.45;;;15.90;99.90;;;;;;5089759;28;20024;-85
2021/08/31 03:26:29;;;;;;;25.20;17.35;;;15.90;99.90;;;;;;5104234;28;20037;-84
2021/08/31 03:28:54;;;;;;;20.90;15.30;;;15.90;99.90;;;;;;5109418;28;20036;-83
2021/08/31 03:31:20;;;;;;;25.70;18.05;;;15.90;99.90;;;;;;5111272;28;20101;-83
2021/08/31 03:33:45;;;;;;;32.00;22.10;;;15.90;99.90;;;;;;5109874;28;20063;-83
2021/08/31 03:36:11;;;;;;;31.23;20.10;;;15.90;99.90;;;;;;5109963;28;20028;-83
2021/08/31 03:38:37;;;;;;;27.67;20.08;;;15.90;99.90;;;;;;5110041;28;20488;-83
2021/08/31 03:41:02;;;;;;;28.88;19.63;;;15.80;99.90;;;;;;5110893;28;20027;-83
2021/08/31 03:43:28;;;;;;;28.70;20.75;;;15.90;99.90;;;;;;5113909;28;20468;-83
2021/08/31 03:45:53;;;;;;;30.75;19.42;;;15.90;99.90;;;;;;5116056;28;20139;-84
2021/08/31 03:48:19;;;;;;;36.20;22.35;;;15.90;99.90;;;;;;5115083;28;20028;-84
2021/08/31 03:50:45;;;;;;;36.63;23.73;;;15.90;99.90;;;;;;5113028;28;20554;-84
2021/08/31 03:53:11;;;;;;;35.80;23.45;;;15.80;99.90;;;;;;5113305;28;20023;-84
2021/08/31 03:55:36;;;;;;;41.35;25.45;;;15.90;99.90;;;;;;5113136;28;20065;-84
2021/08/31 03:58:06;;;;;;;45.53;28.70;;;15.90;99.90;;;;;;5113152;28;20062;-86
2021/08/31 04:00:33;;;;;;;43.95;28.33;;;15.80;99.90;;;;;;5112780;28;20020;-86
2021/08/31 04:02:58;;;;;;;40.40;25.95;;;15.90;99.90;;;;;;5114569;28;20035;-84
2021/08/31 04:05:24;;;;;;;39.58;27.10;;;15.90;99.90;;;;;;5113342;28;20028;-84
2021/08/31 04:07:49;;;;;;;40.83;26.50;;;15.80;99.90;;;;;;5113348;28;20035;-84
2021/08/31 04:10:15;;;;;;;36.38;25.42;;;15.70;99.90;;;;;;5112867;28;20047;-84
2021/08/31 04:12:41;;;;;;;40.47;26.52;;;15.70;99.90;;;;;;5112937;28;20190;-83
2021/08/31 04:15:07;;;;;;;40.97;25.67;;;15.70;99.90;;;;;;5114563;28;20085;-84
2021/08/31 04:17:32;;;;;;;43.55;27.33;;;15.70;99.90;;;;;;5113226;28;20377;-84
2021/08/31 04:19:58;;;;;;;40.53;24.85;;;15.60;99.90;;;;;;5112593;28;20027;-84
2021/08/31 04:22:23;;;;;;;34.80;23.77;;;15.60;99.90;;;;;;5113395;28;20036;-84
2021/08/31 04:24:49;;;;;;;34.33;23.77;;;15.60;99.90;;;;;;5113268;28;20464;-84
2021/08/31 04:27:15;;;;;;;40.20;26.58;;;15.60;99.90;;;;;;5112925;28;20067;-84
2021/08/31 04:29:41;;;;;;;35.10;22.77;;;15.60;99.90;;;;;;5114643;28;20032;-84
2021/08/31 04:32:06;;;;;;;36.45;24.38;;;15.60;99.90;;;;;;5097163;28;20039;-84
2021/08/31 04:34:32;;;;;;;35.95;23.33;;;15.60;99.90;;;;;;5094311;28;20028;-90
2021/08/31 04:36:58;;;;;;;35.22;24.05;;;15.60;99.90;;;;;;5093451;28;20419;-88
2021/08/31 04:39:23;;;;;;;35.90;23.17;;;15.60;99.90;;;;;;5092525;28;20119;-85
2021/08/31 04:41:50;;;;;;;32.25;22.13;;;15.60;99.90;;;;;;5094690;28;20506;-85
2021/08/31 04:44:16;;;;;;;42.58;26.40;;;15.60;99.90;;;;;;5092498;28;20051;-85
2021/08/31 04:46:41;;;;;;;35.75;23.63;;;15.50;99.90;;;;;;5093358;28;20473;-84
2021/08/31 04:49:07;;;;;;;39.35;25.02;;;15.60;99.90;;;;;;5092047;28;20122;-84
2021/08/31 04:51:32;;;;;;;41.03;27.08;;;15.60;99.90;;;;;;5094452;28;20028;-85
2021/08/31 04:53:58;;;;;;;43.55;27.08;;;15.60;99.90;;;;;;5092386;28;20345;-85
2021/08/31 04:56:24;;;;;;;46.78;29.63;;;15.60;99.90;;;;;;5092718;28;20046;-85
2021/08/31 04:58:49;;;;;;;44.58;28.27;;;15.60;99.90;;;;;;5092077;28;20138;-84
2021/08/31 05:01:15;;;;;;;43.53;28.20;;;15.60;99.90;;;;;;5093468;28;20028;-84
2021/08/31 05:03:42;;;;;;;43.63;28.63;;;15.60;99.90;;;;;;5092437;28;20028;-84
2021/08/31 05:06:09;;;;;;;43.80;29.00;;;15.60;99.90;;;;;;5091268;28;20028;-84
2021/08/31 05:08:36;;;;;;;44.80;27.98;;;15.70;99.90;;;;;;5091621;28;20043;-84
2021/08/31 05:11:01;;;;;;;42.95;27.60;;;15.70;99.90;;;;;;5091037;28;20042;-85
2021/08/31 05:13:27;;;;;;;42.83;27.40;;;15.70;99.90;;;;;;5090545;28;20523;-85
2021/08/31 05:15:53;;;;;;;45.70;29.33;;;15.70;99.90;;;;;;5091346;28;20038;-84
2021/08/31 05:18:18;;;;;;;45.28;29.08;;;15.80;99.90;;;;;;5091152;28;20039;-85
2021/08/31 05:20:44;;;;;;;50.53;32.13;;;15.80;99.90;;;;;;5090617;28;20056;-85
2021/08/31 05:23:10;;;;;;;49.60;30.85;;;15.80;99.90;;;;;;5092223;28;20119;-85
2021/08/31 05:25:36;;;;;;;49.78;32.38;;;15.90;99.90;;;;;;5090532;28;20028;-85
2021/08/31 05:28:01;;;;;;;49.28;33.13;;;15.80;99.90;;;;;;5091058;28;20377;-87
2021/08/31 05:30:27;;;;;;;52.03;33.30;;;15.80;99.90;;;;;;5092989;28;20477;-87
2021/08/31 05:32:52;;;;;;;48.53;30.48;;;15.80;99.90;;;;;;5090833;28;20039;-86
2021/08/31 05:35:18;;;;;;;46.45;29.13;;;15.80;99.90;;;;;;5090932;28;20047;-86
2021/08/31 05:37:44;;;;;;;45.08;28.48;;;15.80;99.90;;;;;;5092135;28;20036;-86
2021/08/31 05:40:10;;;;;;;41.15;25.63;;;15.80;99.90;;;;;;5089638;28;20031;-86
2021/08/31 05:42:36;;;;;;;42.30;27.17;;;15.80;99.90;;;;;;5090276;28;20340;-87
2021/08/31 05:45:02;;;;;;;41.85;27.33;;;15.80;99.90;;;;;;5090594;28;20031;-86
2021/08/31 05:47:28;;;;;;;39.65;26.40;;;15.80;99.90;;;;;;5091781;28;20308;-87
2021/08/31 05:49:53;;;;;;;42.42;26.83;;;15.80;99.90;;;;;;5090020;28;20024;-86
2021/08/31 05:52:19;;;;;;;42.95;27.60;;;15.90;99.90;;;;;;5091873;28;20028;-87
2021/08/31 05:54:44;;;;;;;45.17;29.48;;;15.90;99.90;;;;;;5090434;28;20059;-87
2021/08/31 05:57:10;;;;;;;46.95;29.30;;;15.90;99.90;;;;;;5089619;28;20334;-87
2021/08/31 05:59:40;;;;;;;48.38;29.52;;;15.80;99.90;;;;;;5090126;28;20122;-85
2021/08/31 06:02:09;;;;;;;48.15;29.52;;;15.80;99.90;;;;;;5091030;28;20024;-85
2021/08/31 06:04:39;;;;;;;52.88;30.80;;;15.80;99.90;;;;;;5090209;28;20043;-85
2021/08/31 06:07:10;;;;;;;48.97;31.73;;;15.90;99.90;;;;;;5090661;28;20131;-84
2021/08/31 06:09:37;;;;;;;52.78;33.03;;;15.90;99.90;;;;;;5093634;28;20485;-85
2021/08/31 06:12:08;;;;;;;64.22;35.58;;;15.90;99.90;;;;;;5092388;28;20031;-84
2021/08/31 06:14:34;;;;;;;65.22;37.08;;;15.90;99.90;;;;;;5091037;28;20476;-85
2021/08/31 06:17:00;;;;;;;62.55;35.65;;;15.90;99.90;;;;;;5092178;28;20027;-85
2021/08/31 06:19:26;;;;;;;55.67;31.95;;;16.00;99.90;;;;;;5089057;28;20035;-85
2021/08/31 06:21:52;;;;;;;62.38;36.40;;;16.00;99.90;;;;;;5092111;28;20053;-85
2021/08/31 06:24:18;;;;;;;63.08;34.45;;;15.90;99.90;;;;;;5090739;28;20024;-86
2021/08/31 06:26:43;;;;;;;59.05;34.03;;;16.00;99.90;;;;;;5090548;28;20043;-85
2021/08/31 06:29:09;;;;;;;55.72;33.13;;;16.00;99.90;;;;;;5091192;28;20047;-84
2021/08/31 06:31:35;;;;;;;50.83;29.30;;;16.00;99.90;;;;;;5089691;28;20032;-85
2021/08/31 06:34:00;;;;;;;54.58;31.80;;;16.00;99.90;;;;;;5090296;28;20028;-84
2021/08/31 06:36:26;;;;;;;51.13;30.80;;;16.00;99.90;;;;;;5091313;28;20022;-85
2021/08/31 06:38:51;;;;;;;61.83;34.72;;;16.00;99.90;;;;;;5091704;28;20461;-87
2021/08/31 06:41:17;;;;;;;68.85;39.00;;;16.00;99.90;;;;;;5090678;28;20024;-88
2021/08/31 06:43:45;;;;;;;55.60;32.40;;;16.00;99.90;;;;;;5090287;28;20028;-88
2021/08/31 06:46:11;;;;;;;62.47;34.97;;;16.10;99.90;;;;;;5089905;28;20081;-85
2021/08/31 06:48:39;;;;;;;57.88;33.47;;;16.10;99.90;;;;;;5091021;28;20028;-85
2021/08/31 06:51:04;;;;;;;61.10;35.13;;;16.10;99.90;;;;;;5088849;28;20025;-85
2021/08/31 06:53:30;;;;;;;58.67;35.53;;;16.10;99.90;;;;;;5090988;28;20035;-85
2021/08/31 06:55:55;;;;;;;59.97;33.78;;;16.10;99.90;;;;;;5091193;28;20341;-85
2021/08/31 06:58:21;;;;;;;55.00;32.78;;;16.10;99.90;;;;;;5089598;28;20020;-85
2021/08/31 07:00:47;;;;;;;63.40;37.53;;;16.10;99.90;;;;;;5090743;28;20024;-85
2021/08/31 07:03:12;;;;;;;63.80;34.28;;;16.20;99.90;;;;;;5093940;28;20043;-85
2021/08/31 07:05:38;;;;;;;52.63;31.80;;;16.10;99.90;;;;;;5094103;28;20028;-85
2021/08/31 07:08:04;;;;;;;52.22;31.75;;;16.10;99.90;;;;;;5096498;28;20027;-85
2021/08/31 07:10:29;;;;;;;59.80;35.50;;;16.10;99.90;;;;;;5097775;28;20093;-87
2021/08/31 07:12:55;;;;;;;66.63;38.85;;;16.10;99.90;;;;;;5098105;28;20032;-87
2021/08/31 07:15:21;;;;;;;67.18;38.83;;;16.10;99.90;;;;;;5095587;28;20024;-88
2021/08/31 07:17:47;;;;;;;71.60;40.50;;;16.10;99.90;;;;;;5099427;28;20051;-82
2021/08/31 07:20:13;;;;;;;67.55;39.90;;;16.10;99.90;;;;;;5098526;28;20415;-85
2021/08/31 07:22:38;;;;;;;63.65;38.00;;;16.20;99.90;;;;;;5093481;28;20024;-84
2021/08/31 07:25:04;;;;;;;57.60;34.45;;;16.20;99.90;;;;;;5095202;28;20031;-84
2021/08/31 07:27:30;;;;;;;48.17;29.98;;;16.20;99.90;;;;;;5096071;28;20032;-85
2021/08/31 07:29:56;;;;;;;43.95;27.88;;;16.20;99.90;;;;;;5088810;28;20570;-86
2021/08/31 07:32:22;;;;;;;45.25;28.10;;;16.20;99.90;;;;;;5089040;28;20050;-87
2021/08/31 07:34:47;;;;;;;49.95;29.48;;;16.20;99.90;;;;;;5089632;28;20115;-84
2021/08/31 07:37:13;;;;;;;42.70;26.85;;;16.20;99.90;;;;;;5090939;28;20020;-87
2021/08/31 07:39:39;;;;;;;40.90;26.63;;;16.20;99.90;;;;;;5088705;28;20038;-84
2021/08/31 07:42:05;;;;;;;40.45;24.20;;;16.20;99.90;;;;;;5090071;28;20233;-85
2021/08/31 07:44:30;;;;;;;35.85;22.35;;;16.20;99.90;;;;;;5089541;28;20036;-87
2021/08/31 07:46:57;;;;;;;35.25;21.95;;;16.20;99.90;;;;;;5089176;28;20035;-85
2021/08/31 07:49:23;;;;;;;35.00;21.35;;;16.20;99.90;;;;;;5086657;28;20567;-86
2021/08/31 07:51:48;;;;;;;30.63;19.95;;;16.20;99.90;;;;;;5088671;28;20028;-85
2021/08/31 07:54:14;;;;;;;31.73;19.20;;;16.20;99.90;;;;;;5084789;28;20020;-86
2021/08/31 07:56:41;;;;;;;31.60;19.63;;;16.30;99.90;;;;;;5089183;28;20028;-86
2021/08/31 07:59:08;;;;;;;27.98;16.98;;;16.30;99.90;;;;;;5089530;28;20448;-86
2021/08/31 08:01:33;;;;;;;31.75;17.70;;;16.30;99.90;;;;;;5090430;28;20020;-86
2021/08/31 08:03:59;;;;;;;30.83;19.08;;;16.40;99.90;;;;;;5089013;28;20032;-87
2021/08/31 08:06:26;;;;;;;29.25;18.90;;;16.40;99.90;;;;;;5090465;28;20113;-86
2021/08/31 08:08:52;;;;;;;33.47;22.38;;;16.40;99.90;;;;;;5089944;28;20052;-87
2021/08/31 08:11:18;;;;;;;30.38;19.25;;;16.50;99.90;;;;;;5089026;28;20121;-86
2021/08/31 08:13:44;;;;;;;34.30;19.55;;;16.50;99.90;;;;;;5087067;28;20065;-85
2021/08/31 08:16:09;;;;;;;32.40;18.63;;;16.60;99.90;;;;;;5089516;28;20461;-87
2021/08/31 08:18:35;;;;;;;31.00;17.60;;;16.60;99.90;;;;;;5089476;28;20039;-86
2021/08/31 08:21:01;;;;;;;32.03;19.10;;;16.60;99.90;;;;;;5088946;28;20536;-86
2021/08/31 08:23:27;;;;;;;32.80;19.88;;;16.60;99.90;;;;;;5089043;28;20066;-88
2021/08/31 08:25:53;;;;;;;31.10;18.27;;;16.60;99.90;;;;;;5089020;28;20028;-86
2021/08/31 08:28:21;;;;;;;32.50;18.67;;;16.60;99.90;;;;;;5090760;28;20085;-86
2021/08/31 08:30:46;;;;;;;32.15;18.52;;;16.60;99.90;;;;;;5092042;28;20438;-87
2021/08/31 08:33:12;;;;;;;39.10;19.23;;;16.60;99.90;;;;;;5092346;28;20034;-87
2021/08/31 08:35:38;;;;;;;30.38;17.15;;;16.60;99.90;;;;;;5093722;28;20028;-87
2021/08/31 08:38:03;;;;;;;34.22;19.13;;;16.60;99.90;;;;;;5092349;28;20373;-87
2021/08/31 08:40:31;;;;;;;32.13;18.05;;;16.60;99.90;;;;;;5093100;28;20465;-84
2021/08/31 08:42:56;;;;;;;35.08;17.85;;;16.70;99.90;;;;;;5091866;28;20028;-87
2021/08/31 08:45:22;;;;;;;32.92;18.65;;;16.70;99.90;;;;;;5092281;28;20499;-87
2021/08/31 08:47:48;;;;;;;27.98;16.58;;;16.80;99.90;;;;;;5092129;28;20023;-85
2021/08/31 08:50:14;;;;;;;27.65;15.63;;;16.80;99.90;;;;;;5092062;28;20023;-85
2021/08/31 08:52:39;;;;;;;32.10;18.15;;;16.90;99.90;;;;;;5097444;28;20024;-85
2021/08/31 08:55:10;;;;;;;29.23;17.17;;;16.90;99.90;;;;;;5097433;28;20024;-85
2021/08/31 08:57:37;;;;;;;30.58;18.05;;;17.00;99.90;;;;;;5098902;28;20016;-85
2021/08/31 09:00:04;;;;;;;20.95;15.10;;;17.10;99.90;;;;;;5097580;28;20119;-85
2021/08/31 09:02:37;;;;;;;28.33;16.60;;;17.10;99.90;;;;;;5101135;28;20020;-85
2021/08/31 09:05:27;;;;;;;24.73;16.63;;;17.10;99.90;;;;;;5102529;28;20035;-85
2021/08/31 09:07:52;;;;;;;25.73;15.82;;;17.20;99.90;;;;;;5090654;28;20123;-86
2021/08/31 09:10:22;;;;;;;31.45;15.55;;;17.30;99.90;;;;;;5100183;28;20118;-85
2021/08/31 09:12:51;;;;;;;24.35;15.05;;;17.40;99.90;;;;;;5100107;28;20035;-85
2021/08/31 09:15:20;;;;;;;23.40;15.27;;;17.50;99.90;;;;;;5100282;28;20020;-86
2021/08/31 09:18:10;;;;;;;25.70;14.98;;;17.50;99.90;;;;;;5096351;28;20032;-86
2021/08/31 09:20:54;;;;;;;25.15;15.68;;;17.60;99.90;;;;;;5100115;28;20116;-85
2021/08/31 09:23:26;;;;;;;24.48;15.45;;;17.60;99.90;;;;;;5100240;28;20373;-85
2021/08/31 09:25:54;;;;;;;27.65;19.65;;;17.70;99.90;;;;;;5100352;28;20028;-85
2021/08/31 09:28:30;;;;;;;28.27;18.20;;;17.70;99.90;;;;;;5099911;28;20049;-85
2021/08/31 09:31:21;;;;;;;21.30;13.43;;;17.70;99.90;;;;;;5100167;28;20047;-86
2021/08/31 09:33:49;;;;;;;19.73;11.52;;;17.70;99.90;;;;;;5101161;28;20024;-86
2021/08/31 09:36:22;;;;;;;21.00;11.43;;;17.70;99.90;;;;;;5092316;28;20111;-85
2021/08/31 09:38:58;;;;;;;23.35;13.57;;;17.70;99.90;;;;;;5091323;28;20543;-86
2021/08/31 09:41:29;;;;;;;24.55;13.05;;;17.80;99.90;;;;;;5091777;28;20028;-85
2021/08/31 09:43:56;;;;;;;21.15;12.75;;;17.80;99.90;;;;;;5090452;28;20488;-85
2021/08/31 09:46:22;;;;;;;21.52;11.85;;;17.90;99.90;;;;;;5090776;28;20021;-85
2021/08/31 09:48:48;;;;;;;21.73;12.93;;;18.00;99.90;;;;;;5090122;28;20030;-85
2021/08/31 09:51:15;;;;;;;19.50;12.38;;;18.00;99.90;;;;;;5090678;28;20028;-84
2021/08/31 09:53:42;;;;;;;24.55;12.45;;;18.10;99.90;;;;;;5098264;28;20031;-84
2021/08/31 09:56:13;;;;;;;18.10;11.23;;;18.00;99.90;;;;;;5098426;28;20020;-84
2021/08/31 09:58:43;;;;;;;22.60;11.88;;;18.00;99.90;;;;;;5099606;28;20020;-85
2021/08/31 10:01:09;;;;;;;19.58;10.38;;;18.10;99.90;;;;;;5100012;28;20392;-85
2021/08/31 10:03:35;;;;;;;19.15;11.68;;;18.10;99.90;;;;;;5091439;28;20061;-86
2021/08/31 10:06:03;;;;;;;19.27;11.60;;;18.10;99.90;;;;;;5090041;28;20041;-86
2021/08/31 10:08:34;;;;;;;15.88;10.23;;;18.00;99.90;;;;;;5092283;28;20035;-86
2021/08/31 10:11:02;;;;;;;17.33;8.85;;;18.00;99.90;;;;;;5089391;28;20024;-85
2021/08/31 10:13:28;;;;;;;17.38;9.13;;;18.00;99.90;;;;;;5090108;28;20031;-84
2021/08/31 10:15:56;;;;;;;12.52;7.88;;;18.10;99.90;;;;;;5107757;28;20028;-85
2021/08/31 10:18:25;;;;;;;13.93;8.45;;;18.10;99.90;;;;;;5091187;28;20107;-83
2021/08/31 10:20:54;;;;;;;14.02;8.02;;;18.20;99.90;;;;;;5092432;28;20047;-83
2021/08/31 10:23:29;;;;;;;35.83;21.20;;;18.30;99.90;;;;;;5091298;28;20050;-84
2021/08/31 10:26:29;;;;;;;53.20;30.80;;;18.50;99.90;;;;;;5092389;28;20120;-83
2021/08/31 10:29:13;;;;;;;39.33;22.58;;;18.60;99.90;;;;;;5093375;28;20131;-83
2021/08/31 10:31:41;;;;;;;33.05;17.75;;;18.70;99.90;;;;;;5094394;28;20540;-83
2021/08/31 10:34:32;;;;;;;29.05;15.70;;;18.80;99.90;;;;;;5092166;28;20047;-83
2021/08/31 10:37:09;;;;;;;22.35;13.07;;;18.80;99.90;;;;;;5094167;28;20074;-83
2021/08/31 10:39:52;;;;;;;18.98;12.00;;;18.80;99.90;;;;;;5093178;28;20115;-82
2021/08/31 10:42:26;;;;;;;14.50;8.88;;;18.80;99.90;;;;;;5090597;28;20035;-83
2021/08/31 10:44:54;;;;;;;11.75;7.28;;;18.70;99.90;;;;;;5107508;28;20023;-84
2021/08/31 10:47:37;;;;;;;10.23;7.13;;;18.60;99.20;;;;;;5107344;28;20459;-86
2021/08/31 10:50:05;;;;;;;11.55;5.97;;;18.70;99.20;;;;;;5089180;28;20028;-86
2021/08/31 10:52:34;;;;;;;10.70;6.63;;;18.70;98.00;;;;;;5106648;28;20057;-85
2021/08/31 10:55:00;;;;;;;10.52;6.13;;;18.70;98.10;;;;;;5106572;28;20162;-85
2021/08/31 10:57:35;;;;;;;12.95;6.32;;;18.80;96.50;;;;;;5089295;28;20502;-85
2021/08/31 11:00:25;;;;;;;10.07;6.15;;;18.90;96.50;;;;;;5105982;28;20016;-85
2021/08/31 11:02:56;;;;;;;14.32;7.10;;;19.00;96.90;;;;;;5075338;28;20032;-85
2021/08/31 11:05:25;;;;;;;13.10;8.13;;;19.00;97.10;;;;;;5090728;28;20016;-85
2021/08/31 11:08:00;;;;;;;13.88;8.00;;;19.10;97.50;;;;;;5089083;28;20036;-85
2021/08/31 11:10:31;;;;;;;15.82;8.88;;;19.10;97.80;;;;;;5070527;28;20044;-84
2021/08/31 11:13:08;;;;;;;16.85;8.63;;;19.00;98.10;;;;;;5071542;28;20029;-83
2021/08/31 11:15:35;;;;;;;12.95;7.72;;;19.00;97.40;;;;;;5071377;28;20189;-84
2021/08/31 11:18:01;;;;;;;12.30;7.35;;;18.90;97.50;;;;;;5071249;28;20137;-84
2021/08/31 11:20:28;;;;;;;11.07;6.82;;;18.90;97.40;;;;;;5087013;28;20127;-84
2021/08/31 11:23:06;;;;;;;9.63;5.85;;;18.90;97.60;;;;;;5086986;28;20020;-83
2021/08/31 11:25:40;;;;;;;9.75;6.00;;;18.90;96.40;;;;;;5071349;28;20028;-84
2021/08/31 11:28:12;;;;;;;10.77;5.72;;;19.10;96.20;;;;;;5071479;28;20029;-83
2021/08/31 11:30:48;;;;;;;12.63;6.57;;;19.20;95.80;;;;;;5086369;28;20059;-84
2021/08/31 11:33:20;;;;;;;14.70;7.97;;;19.30;95.70;;;;;;5070146;28;20424;-83
2021/08/31 11:35:47;;;;;;;15.52;7.60;;;19.30;96.30;;;;;;5088338;28;20108;-83
2021/08/31 11:38:13;;;;;;;13.60;7.55;;;19.30;96.60;;;;;;5081975;28;20397;-84
2021/08/31 11:40:39;;;;;;;13.98;7.47;;;19.30;96.40;;;;;;5080176;28;20043;-84
2021/08/31 11:43:05;;;;;;;11.68;6.50;;;19.20;96.60;;;;;;5078473;28;20024;-84
2021/08/31 11:45:36;;;;;;;12.75;6.53;;;19.20;96.00;;;;;;5092948;28;20028;-84
2021/08/31 11:48:02;;;;;;;10.68;6.25;;;19.20;95.00;;;;;;5091784;28;20549;-84
2021/08/31 11:50:28;;;;;;;9.60;5.43;;;19.20;95.70;;;;;;5070247;28;20032;-84
2021/08/31 11:52:54;;;;;;;8.70;5.03;;;19.30;95.60;;;;;;5068800;28;20024;-84
2021/08/31 11:55:27;;;;;;;8.02;5.18;;;19.30;95.10;;;;;;5085481;28;20036;-84
2021/08/31 11:58:03;;;;;;;14.25;5.40;;;19.40;94.50;;;;;;5085649;28;20013;-85
2021/08/31 12:00:43;;;;;;;9.02;5.53;;;19.50;94.90;;;;;;5085024;28;20024;-84
2021/08/31 12:03:20;;;;;;;8.25;4.82;;;19.50;94.50;;;;;;5071131;28;20025;-83
2021/08/31 12:05:46;;;;;;;7.20;4.47;;;19.70;93.20;;;;;;5071636;28;20395;-84
2021/08/31 12:08:12;;;;;;;6.85;4.18;;;19.70;93.40;;;;;;5073413;28;20044;-84
2021/08/31 12:10:39;;;;;;;10.00;5.60;;;19.70;93.20;;;;;;5071545;28;20082;-85
2021/08/31 12:13:05;;;;;;;8.88;5.10;;;19.70;93.70;;;;;;5073000;28;20473;-86
2021/08/31 12:15:32;;;;;;;7.93;5.03;;;19.70;93.90;;;;;;5072217;28;20035;-86
2021/08/31 12:18:03;;;;;;;9.30;5.75;;;19.70;94.20;;;;;;5073504;28;20019;-86
2021/08/31 12:20:30;;;;;;;9.32;5.03;;;19.70;94.60;;;;;;5072804;28;20025;-85
2021/08/31 12:23:04;;;;;;;10.27;5.97;;;19.70;94.90;;;;;;5071939;28;20134;-85
2021/08/31 12:25:44;;;;;;;9.23;5.20;;;19.70;94.70;;;;;;5071957;28;20210;-84
2021/08/31 12:28:10;;;;;;;7.93;5.22;;;19.70;94.30;;;;;;5073221;28;20099;-85
2021/08/31 12:30:37;;;;;;;8.32;4.88;;;19.70;94.50;;;;;;5070982;28;20020;-85